Clearwater, FL

4:10 AM EDT on August 28, 2014 (GMT -0400)
N San Remo | Change Station
CLOSE
Current Station
Personal Weather Station
Location: Clearwater, FL
Elevation: 35 ft
Nearby Weather Stations

Elev 35 ft 27.97 °N, 82.78 °W | Updated 2 minutes ago

Partly Cloudy
Partly Cloudy
84.7 °F
Feels Like 94 °F
N
2.0
Wind Variable Wind from East
Gusts 2.0 mph

Today
High -- | Low -- °F
--% Chance of Precip.
Yesterday
High -- | Low -- °F
Precip. -- in
7:07 AM 7:56 PM
Waxing Crescent, 7% visible
Pressure 29.97 in
Visibility 10.0 miles
Clouds Clear
Heat Index 94 °F
Dew Point 76 °F
Humidity 75%
Rainfall 0.00 in
Snow Depth Not available.
UV 0.0 out of 12
Pollen 5.80 out of 12
Air Quality Not available.
Flu Activity Not available.
METAR KPIE 280753Z AUTO 10006KT 10SM CLR 26/23 A2997 RMK AO2 SLP149 T02610228

More Conditions Fewer Conditions

Pressure 29.97 in
Visibility 10.0 miles
Clouds Clear
Heat Index 94 °F
Dew Point 76 °F
Humidity 75%
Rainfall 0.00 in
Snow Depth Not available.
UV 0.0 out of 12
Pollen 5.80 out of 12
Air Quality Not available.
Flu Activity Not available.
METAR KPIE 280753Z AUTO 10006KT 10SM CLR 26/23 A2997 RMK AO2 SLP149 T02610228

More Conditions Fewer Conditions

10-Day Weather Forecast

Almanac

Astronomy

Aug. 28, 2014 Rise Set
Actual Time 7:07 AM EDT 7:56 PM EDT
Civil Twilight 6:43 AM EDT 8:20 PM EDT
Nautical Twilight 6:15 AM EDT 8:48 PM EDT
Astronomical Twilight 5:46 AM EDT 9:17 PM EDT
Moon 9:41 AM EDT 9:39 PM EDT
Length of Visible Light 13h 36m
Length of Day
12h 48m
Tomorrow will be 1m 34s shorter.
Waxing Crescent, 7% of the Moon is Illuminated
Today
Waxing Crescent
Sep 2
First Quarter
Sep 8
Full
Sep 15
Last Quarter
Sep 24
New

Today's Extremes

State Highs State Lows

Community

WunderPhotos

Upload Photos

1,747,918 photos uploaded!

Nearby

Air Quality

  Air Quality AQ Index Pollutant
Thursday Good
PM2.5
Thursday Good
OZONE

Snow Depth

Station Depth Elevation
No new snow has been reported.

Earthquake Activity

City Distance Mag. Time & Date
No recent earthquake activity has been reported nearby.
Minimum magnitude displayed is 2.5.

Coastal Water Temperatures

Place Temperature
Clearwater Beach, FL 86.0 °F
Port Manatee, FL 86.0 °F
St Petersburg, FL 88.0 °F
Old Port Tampa, FL 86.0 °F
McKay Bay Entrance, FL 87.1 °F

Nearby Weather Stations